F/V Les Vikings 2 — FGQU — position and weather

sailwx.info

Track history (hours):
 
Tides and Currents Weather Stations Pressure Air Temp Water Temp Dewpoint Dewpoint Depression Visibility Wind Speed Wind Dir Waves Ship Positions

F/V Les Vikings 2

Last reported at 2017-Nov-22 22:50 UTC. Time now 2017-Nov-24 11:21 UTC.
Position N 44°20' W 001°21'.

Length 20 m.

Type: Fishing. MMSI: 228133000.

Date/timePositionNaut miles runAvg speedWind from/ knotsBaromVisibWave heightAir tempDewpointWater temp
2017-Nov-22 22:50N 44°20' W 001°21'1 1.7
2017-Nov-22 22:30N 44°19' W 001°21'2 3.4
2017-Nov-22 22:00N 44°18' W 001°21'2 3.4
2017-Nov-22 21:30N 44°16' W 001°22'2 3.4
2017-Nov-22 21:00N 44°14' W 001°23'2 3.3
2017-Nov-22 20:30N 44°13' W 001°23'2 3.3
2017-Nov-22 20:00N 44°11' W 001°23'2 3.4
2017-Nov-22 19:30N 44°09' W 001°23'  
2017-Nov-20 00:29N 43°23' W 001°40'0 0.0
2017-Nov-20 00:00N 43°23' W 001°40'0 0.0
2017-Nov-19 23:30N 43°23' W 001°40'0 0.0
2017-Nov-19 23:00N 43°23' W 001°40'0 0.0
2017-Nov-19 22:30N 43°23' W 001°40'0 0.0
2017-Nov-19 21:36N 43°23' W 001°40'0 0.0
2017-Nov-19 21:20N 43°23' W 001°40'0 0.0
2017-Nov-19 21:00N 43°23' W 001°40'0 0.0
2017-Nov-19 20:28N 43°23' W 001°40'0 0.0
2017-Nov-19 20:00N 43°23' W 001°40'0 0.0
2017-Nov-19 19:28N 43°23' W 001°40'0 0.0
2017-Nov-19 18:58N 43°23' W 001°40'2 3.8
2017-Nov-19 18:30N 43°25' W 001°40'5 9.7
2017-Nov-19 17:59N 43°30' W 001°40'5 9.7
2017-Nov-19 17:30N 43°34' W 001°38'6 9.6
2017-Nov-19 16:56N 43°40' W 001°37'5 9.6
2017-Nov-19 16:28N 43°44' W 001°36'5 9.7
2017-Nov-19 15:54N 43°50' W 001°34'4 9.7
2017-Nov-19 15:29N 43°54' W 001°33'510.0
2017-Nov-19 15:00N 43°58' W 001°32'510.0
2017-Nov-19 14:29N 44°03' W 001°31'5 9.8
2017-Nov-19 14:00N 44°08' W 001°29'4 9.0
2017-Nov-19 13:30N 44°12' W 001°28'1 1.2
2017-Nov-19 13:00N 44°13' W 001°28'4 7.4
2017-Nov-19 12:30N 44°17' W 001°27'5 9.1
2017-Nov-19 12:00N 44°21' W 001°25'1 1.8
2017-Nov-19 11:30N 44°22' W 001°26'2 3.3
2017-Nov-19 11:00N 44°23' W 001°26'2 3.6
2017-Nov-19 10:30N 44°25' W 001°25'2 3.6
2017-Nov-19 10:00N 44°27' W 001°25'2 3.5
2017-Nov-19 09:30N 44°28' W 001°24'2 3.5
2017-Nov-19 09:00N 44°30' W 001°23'2 3.6
2017-Nov-19 08:30N 44°32' W 001°22'1 2.1
2017-Nov-19 08:00N 44°33' W 001°23'2 3.6
2017-Nov-19 07:31N 44°31' W 001°23'2 3.4
2017-Nov-19 07:00N 44°29' W 001°22'2 3.6
2017-Nov-19 06:30N 44°28' W 001°21'1 2.0
2017-Nov-19 06:00N 44°27' W 001°21'1 1.6
2017-Nov-19 05:30N 44°27' W 001°21'1 1.5
2017-Nov-19 05:00N 44°28' W 001°21'1 1.6
2017-Nov-19 04:30N 44°29' W 001°21'1 1.8
2017-Nov-19 04:00N 44°30' W 001°22'1 1.9
2017-Nov-19 03:30N 44°31' W 001°22'2 3.2
2017-Nov-19 02:59N 44°32' W 001°22'2 3.3
2017-Nov-19 02:30N 44°34' W 001°23'2 3.2
2017-Nov-19 02:00N 44°35' W 001°23'2 3.2
2017-Nov-19 01:30N 44°37' W 001°23'2 3.2
2017-Nov-19 01:00N 44°39' W 001°23'2 3.1
2017-Nov-19 00:30N 44°40' W 001°23'2 3.1
2017-Nov-19 00:00N 44°42' W 001°23'2 3.4
2017-Nov-18 23:30N 44°43' W 001°23'1 1.4
2017-Nov-18 23:00N 44°44' W 001°23'1 3.0
2017-Nov-18 22:30N 44°43' W 001°23'2 3.5
2017-Nov-18 22:00N 44°41' W 001°23'2 3.5
2017-Nov-18 21:30N 44°39' W 001°23'2 3.4
2017-Nov-18 21:00N 44°37' W 001°23'2 3.3
2017-Nov-18 20:30N 44°36' W 001°23'2 3.2
2017-Nov-18 20:00N 44°34' W 001°22'2 3.2
2017-Nov-18 19:29N 44°33' W 001°22'2 3.2
2017-Nov-18 19:00N 44°31' W 001°22'5 2.9
2017-Nov-18 17:22N 44°26' W 001°22'2 5.1
2017-Nov-18 17:00N 44°24' W 001°22'1 2.6
2017-Nov-18 16:30N 44°26' W 001°22'2 3.8
2017-Nov-18 16:00N 44°28' W 001°22'2 3.8
2017-Nov-18 15:30N 44°29' W 001°22'2 3.9
2017-Nov-18 15:00N 44°31' W 001°22'2 3.8
2017-Nov-18 14:30N 44°33' W 001°22'1 2.0
2017-Nov-18 14:00N 44°33' W 001°24'2 3.6
2017-Nov-18 13:30N 44°31' W 001°23'2 3.5
2017-Nov-18 13:00N 44°29' W 001°24'2 3.5
2017-Nov-18 12:30N 44°27' W 001°24'2 3.5
2017-Nov-18 12:00N 44°26' W 001°24'1 2.9
2017-Nov-18 11:30N 44°24' W 001°23'0 0.5
2017-Nov-18 11:00N 44°24' W 001°23'2 3.4
2017-Nov-18 10:30N 44°26' W 001°23'2 3.5
2017-Nov-18 10:00N 44°28' W 001°23'2 3.4
2017-Nov-18 09:30N 44°30' W 001°23'2 3.4
2017-Nov-18 08:59N 44°31' W 001°23'2 3.5
2017-Nov-18 08:30N 44°33' W 001°24'2 3.4
2017-Nov-18 08:00N 44°35' W 001°24'2 3.4
2017-Nov-18 07:30N 44°37' W 001°24'2 3.6
2017-Nov-18 07:00N 44°38' W 001°24'1 2.3
2017-Nov-18 06:30N 44°39' W 001°25'1 1.3
2017-Nov-18 06:00N 44°39' W 001°25'1 1.3
2017-Nov-18 05:30N 44°39' W 001°24'2 3.2
2017-Nov-18 05:00N 44°41' W 001°24'2 3.3
2017-Nov-18 04:30N 44°42' W 001°24'2 3.2
2017-Nov-18 04:00N 44°44' W 001°24'2 3.3
2017-Nov-18 03:30N 44°46' W 001°24'2 3.2
2017-Nov-18 03:00N 44°47' W 001°24'2 3.3
2017-Nov-18 02:26N 44°49' W 001°24'1 0.1
2017-Nov-17 20:43N 44°48' W 001°24'1 3.0
2017-Nov-17 20:23N 44°47' W 001°24'1 3.0
2017-Nov-17 20:00N 44°46' W 001°24'2 3.0
2017-Nov-17 19:28N 44°45' W 001°23'1 1.4
2017-Nov-17 19:00N 44°44' W 001°23'2 3.3
2017-Nov-17 18:30N 44°46' W 001°22'2 3.3
2017-Nov-17 17:55N 44°48' W 001°21'2 3.0
2017-Nov-17 17:14N 44°50' W 001°23'1 2.9
2017-Nov-17 16:52N 44°49' W 001°23'1 2.9
2017-Nov-17 16:30N 44°48' W 001°25'1 2.7
2017-Nov-17 16:00N 44°48' W 001°26'1 2.2
2017-Nov-17 15:26N 44°49' W 001°27'3 2.6
2017-Nov-17 14:22N 44°47' W 001°25'2 3.6
2017-Nov-17 13:47N 44°45' W 001°24'1 3.5
2017-Nov-17 13:31N 44°44' W 001°24'2 3.4
2017-Nov-17 13:00N 44°42' W 001°23'2 3.7
2017-Nov-17 12:30N 44°40' W 001°23'1 2.3
2017-Nov-17 12:00N 44°40' W 001°25'2 3.8
2017-Nov-17 11:30N 44°42' W 001°25'2 3.6
2017-Nov-17 11:00N 44°44' W 001°25'2 3.3
2017-Nov-17 10:30N 44°46' W 001°25'0 0.3
2017-Nov-17 09:59N 44°46' W 001°25'0 0.2
2017-Nov-17 09:30N 44°46' W 001°25'2 3.4
2017-Nov-17 09:00N 44°47' W 001°26'2 3.4
2017-Nov-17 08:30N 44°49' W 001°26'4 3.5
2017-Nov-17 07:14N 44°54' W 001°26'1 3.6
2017-Nov-17 07:00N 44°54' W 001°26'5 1.2
2017-Nov-17 02:57N 44°50' W 001°23'1 0.2
2017-Nov-16 21:35N 44°50' W 001°24'0 3.5
2017-Nov-16 21:30N 44°50' W 001°24'3 3.5
2017-Nov-16 20:40N 44°47' W 001°25'1 3.6
2017-Nov-16 20:30N 44°47' W 001°25'2 3.5
2017-Nov-16 20:00N 44°45' W 001°24'2 3.5
2017-Nov-16 19:30N 44°43' W 001°24'2 3.4
2017-Nov-16 19:00N 44°41' W 001°24'1 2.6
2017-Nov-16 18:30N 44°40' W 001°25'0 0.4
2017-Nov-16 18:00N 44°40' W 001°25'0 0.6
2017-Nov-16 17:30N 44°40' W 001°25'0 0.5
2017-Nov-16 17:00N 44°40' W 001°24'1 1.7
2017-Nov-16 16:30N 44°41' W 001°24'2 3.7
2017-Nov-16 16:00N 44°43' W 001°24'2 3.8
2017-Nov-16 15:30N 44°45' W 001°24'2 3.8
2017-Nov-16 15:00N 44°47' W 001°25'2 3.9
2017-Nov-16 14:29N 44°49' W 001°25'1 2.6
2017-Nov-16 14:00N 44°49' W 001°27'2 3.5
2017-Nov-16 13:30N 44°48' W 001°26'2 3.6
2017-Nov-16 12:50N 44°45' W 001°25'1 3.6
2017-Nov-16 12:30N 44°44' W 001°25'2 3.5
2017-Nov-16 12:01N 44°43' W 001°25'0 0.5
2017-Nov-16 11:30N 44°42' W 001°25'2 3.6
2017-Nov-16 11:01N 44°44' W 001°25'2 3.6
2017-Nov-16 10:30N 44°46' W 001°25'2 3.5
2017-Nov-16 10:00N 44°48' W 001°26'2 3.6
2017-Nov-16 09:30N 44°49' W 001°27'2 2.5
2017-Nov-16 08:39N 44°48' W 001°25'1 3.8
2017-Nov-16 08:30N 44°47' W 001°25'2 3.8
2017-Nov-16 07:59N 44°45' W 001°24'2 3.8
2017-Nov-16 07:30N 44°43' W 001°24'2 3.6
2017-Nov-16 07:00N 44°42' W 001°26'1 2.2
2017-Nov-16 06:30N 44°41' W 001°26'1 2.0
2017-Nov-16 06:00N 44°40' W 001°26'0 0.3
2017-Nov-16 05:30N 44°40' W 001°26'0 0.5
2017-Nov-16 05:00N 44°40' W 001°26'0 0.5
2017-Nov-16 04:30N 44°40' W 001°25'0 0.8
2017-Nov-16 04:00N 44°41' W 001°25'1 2.7
2017-Nov-16 03:30N 44°42' W 001°25'2 3.4
2017-Nov-16 03:00N 44°44' W 001°25'2 3.4
2017-Nov-16 02:30N 44°45' W 001°25'2 3.3
2017-Nov-16 02:00N 44°47' W 001°26'3 3.3
2017-Nov-16 01:13N 44°49' W 001°27'3 2.3
2017-Nov-16 00:03N 44°47' W 001°25'0 3.2
2017-Nov-16 00:00N 44°47' W 001°25'2 3.1
2017-Nov-15 23:23N 44°45' W 001°24'1 3.3
2017-Nov-15 23:00N 44°44' W 001°24'0 0.8
2017-Nov-15 22:30N 44°43' W 001°24'1 2.7
2017-Nov-15 22:00N 44°45' W 001°24'2 3.2
2017-Nov-15 21:30N 44°46' W 001°24'2 2.9
2017-Nov-15 20:51N 44°48' W 001°23'1 3.0
2017-Nov-15 20:30N 44°48' W 001°21'2 3.2
2017-Nov-15 20:00N 44°48' W 001°19'2 3.1
2017-Nov-15 19:30N 44°46' W 001°19'2 3.2
2017-Nov-15 19:00N 44°44' W 001°20'2 3.2
2017-Nov-15 18:30N 44°43' W 001°21'2 3.1
2017-Nov-15 18:00N 44°43' W 001°23'1 2.4
2017-Nov-15 17:30N 44°42' W 001°24'1 1.5
2017-Nov-15 17:00N 44°41' W 001°24'2 3.4
2017-Nov-15 16:30N 44°39' W 001°23'2 3.4
2017-Nov-15 16:00N 44°38' W 001°23'2 3.5
2017-Nov-15 15:30N 44°36' W 001°23'2 3.5
2017-Nov-15 15:00N 44°34' W 001°23'2 3.5
2017-Nov-15 14:30N 44°33' W 001°23'2 3.5
2017-Nov-15 14:00N 44°31' W 001°23'2 3.5
2017-Nov-15 13:30N 44°29' W 001°23'2 3.4
2017-Nov-15 13:00N 44°27' W 001°23'2 3.4
2017-Nov-15 12:30N 44°26' W 001°23'2 3.4
2017-Nov-15 12:00N 44°24' W 001°23'4 2.7
2017-Nov-15 10:35N 44°20' W 001°22'0 3.7
2017-Nov-15 10:29N 44°20' W 001°22'2 3.2
2017-Nov-15 09:59N 44°18' W 001°23'5 3.3
2017-Nov-15 08:25N 44°24' W 001°23'1 3.4
2017-Nov-15 08:00N 44°22' W 001°22'5 3.4
2017-Nov-15 06:27N 44°17' W 001°24'5 1.3
2017-Nov-15 02:49N 44°22' W 001°22'2 3.6
2017-Nov-15 02:22N 44°23' W 001°21'1 3.7
2017-Nov-15 02:00N 44°24' W 001°20'4 3.7
2017-Nov-15 00:49N 44°29' W 001°21'2 3.6
2017-Nov-15 00:24N 44°30' W 001°22'1 2.7
2017-Nov-14 23:53N 44°29' W 001°20'1 3.6
2017-Nov-14 23:28N 44°28' W 001°20'2 0.6
2017-Nov-14 19:41N 44°26' W 001°22'7 0.8
2017-Nov-14 10:09N 44°19' W 001°22'1 3.6
2017-Nov-14 09:47N 44°20' W 001°22'1 3.6
2017-Nov-14 09:30N 44°21' W 001°22'2 3.6
2017-Nov-14 09:00N 44°23' W 001°22'5 0.8
2017-Nov-14 03:20N 44°27' W 001°22'62 2.4
2017-Nov-13 02:00N 43°27' W 001°40'4 3.3
2017-Nov-13 00:53N 43°23' W 001°40'0 0.1
2017-Nov-13 00:20N 43°23' W 001°40'0 0.0
2017-Nov-12 23:19N 43°23' W 001°40'  
Track history (hours):
 
Tides and Currents Weather Stations Pressure Air Temp Water Temp Dewpoint Dewpoint Depression Visibility Wind Speed Wind Dir Waves Ship Positions

F/V Les Vikings 2

Last reported at 2017-Nov-22 22:50 UTC. Time now 2017-Nov-24 11:21 UTC.
Position N 44°20' W 001°21'.

Length 20 m.

Type: Fishing. MMSI: 228133000.

Date/timePositionNaut miles runAvg speedWind from/ knotsBaromVisibWave heightAir tempDewpointWater temp
2017-Nov-22 22:50N 44°20' W 001°21'1 1.7
2017-Nov-22 22:30N 44°19' W 001°21'2 3.4
2017-Nov-22 22:00N 44°18' W 001°21'2 3.4
2017-Nov-22 21:30N 44°16' W 001°22'2 3.4
2017-Nov-22 21:00N 44°14' W 001°23'2 3.3
2017-Nov-22 20:30N 44°13' W 001°23'2 3.3
2017-Nov-22 20:00N 44°11' W 001°23'2 3.4
2017-Nov-22 19:30N 44°09' W 001°23'  
2017-Nov-20 00:29N 43°23' W 001°40'0 0.0
2017-Nov-20 00:00N 43°23' W 001°40'0 0.0
2017-Nov-19 23:30N 43°23' W 001°40'0 0.0
2017-Nov-19 23:00N 43°23' W 001°40'0 0.0
2017-Nov-19 22:30N 43°23' W 001°40'0 0.0
2017-Nov-19 21:36N 43°23' W 001°40'0 0.0
2017-Nov-19 21:20N 43°23' W 001°40'0 0.0
2017-Nov-19 21:00N 43°23' W 001°40'0 0.0
2017-Nov-19 20:28N 43°23' W 001°40'0 0.0
2017-Nov-19 20:00N 43°23' W 001°40'0 0.0
2017-Nov-19 19:28N 43°23' W 001°40'0 0.0
2017-Nov-19 18:58N 43°23' W 001°40'2 3.8
2017-Nov-19 18:30N 43°25' W 001°40'5 9.7
2017-Nov-19 17:59N 43°30' W 001°40'5 9.7
2017-Nov-19 17:30N 43°34' W 001°38'6 9.6
2017-Nov-19 16:56N 43°40' W 001°37'5 9.6
2017-Nov-19 16:28N 43°44' W 001°36'5 9.7
2017-Nov-19 15:54N 43°50' W 001°34'4 9.7
2017-Nov-19 15:29N 43°54' W 001°33'510.0
2017-Nov-19 15:00N 43°58' W 001°32'510.0
2017-Nov-19 14:29N 44°03' W 001°31'5 9.8
2017-Nov-19 14:00N 44°08' W 001°29'4 9.0
2017-Nov-19 13:30N 44°12' W 001°28'1 1.2
2017-Nov-19 13:00N 44°13' W 001°28'4 7.4
2017-Nov-19 12:30N 44°17' W 001°27'5 9.1
2017-Nov-19 12:00N 44°21' W 001°25'1 1.8
2017-Nov-19 11:30N 44°22' W 001°26'2 3.3
2017-Nov-19 11:00N 44°23' W 001°26'2 3.6
2017-Nov-19 10:30N 44°25' W 001°25'2 3.6
2017-Nov-19 10:00N 44°27' W 001°25'2 3.5
2017-Nov-19 09:30N 44°28' W 001°24'2 3.5
2017-Nov-19 09:00N 44°30' W 001°23'2 3.6
2017-Nov-19 08:30N 44°32' W 001°22'1 2.1
2017-Nov-19 08:00N 44°33' W 001°23'2 3.6
2017-Nov-19 07:31N 44°31' W 001°23'2 3.4
2017-Nov-19 07:00N 44°29' W 001°22'2 3.6
2017-Nov-19 06:30N 44°28' W 001°21'1 2.0
2017-Nov-19 06:00N 44°27' W 001°21'1 1.6
2017-Nov-19 05:30N 44°27' W 001°21'1 1.5
2017-Nov-19 05:00N 44°28' W 001°21'1 1.6
2017-Nov-19 04:30N 44°29' W 001°21'1 1.8
2017-Nov-19 04:00N 44°30' W 001°22'1 1.9
2017-Nov-19 03:30N 44°31' W 001°22'2 3.2
2017-Nov-19 02:59N 44°32' W 001°22'2 3.3
2017-Nov-19 02:30N 44°34' W 001°23'2 3.2
2017-Nov-19 02:00N 44°35' W 001°23'2 3.2
2017-Nov-19 01:30N 44°37' W 001°23'2 3.2
2017-Nov-19 01:00N 44°39' W 001°23'2 3.1
2017-Nov-19 00:30N 44°40' W 001°23'2 3.1
2017-Nov-19 00:00N 44°42' W 001°23'2 3.4
2017-Nov-18 23:30N 44°43' W 001°23'1 1.4
2017-Nov-18 23:00N 44°44' W 001°23'1 3.0
2017-Nov-18 22:30N 44°43' W 001°23'2 3.5
2017-Nov-18 22:00N 44°41' W 001°23'2 3.5
2017-Nov-18 21:30N 44°39' W 001°23'2 3.4
2017-Nov-18 21:00N 44°37' W 001°23'2 3.3
2017-Nov-18 20:30N 44°36' W 001°23'2 3.2
2017-Nov-18 20:00N 44°34' W 001°22'2 3.2
2017-Nov-18 19:29N 44°33' W 001°22'2 3.2
2017-Nov-18 19:00N 44°31' W 001°22'5 2.9
2017-Nov-18 17:22N 44°26' W 001°22'2 5.1
2017-Nov-18 17:00N 44°24' W 001°22'1 2.6
2017-Nov-18 16:30N 44°26' W 001°22'2 3.8
2017-Nov-18 16:00N 44°28' W 001°22'2 3.8
2017-Nov-18 15:30N 44°29' W 001°22'2 3.9
2017-Nov-18 15:00N 44°31' W 001°22'2 3.8
2017-Nov-18 14:30N 44°33' W 001°22'1 2.0
2017-Nov-18 14:00N 44°33' W 001°24'2 3.6
2017-Nov-18 13:30N 44°31' W 001°23'2 3.5
2017-Nov-18 13:00N 44°29' W 001°24'2 3.5
2017-Nov-18 12:30N 44°27' W 001°24'2 3.5
2017-Nov-18 12:00N 44°26' W 001°24'1 2.9
2017-Nov-18 11:30N 44°24' W 001°23'0 0.5
2017-Nov-18 11:00N 44°24' W 001°23'2 3.4
2017-Nov-18 10:30N 44°26' W 001°23'2 3.5
2017-Nov-18 10:00N 44°28' W 001°23'2 3.4
2017-Nov-18 09:30N 44°30' W 001°23'2 3.4
2017-Nov-18 08:59N 44°31' W 001°23'2 3.5
2017-Nov-18 08:30N 44°33' W 001°24'2 3.4
2017-Nov-18 08:00N 44°35' W 001°24'2 3.4
2017-Nov-18 07:30N 44°37' W 001°24'2 3.6
2017-Nov-18 07:00N 44°38' W 001°24'1 2.3
2017-Nov-18 06:30N 44°39' W 001°25'1 1.3
2017-Nov-18 06:00N 44°39' W 001°25'1 1.3
2017-Nov-18 05:30N 44°39' W 001°24'2 3.2
2017-Nov-18 05:00N 44°41' W 001°24'2 3.3
2017-Nov-18 04:30N 44°42' W 001°24'2 3.2
2017-Nov-18 04:00N 44°44' W 001°24'2 3.3
2017-Nov-18 03:30N 44°46' W 001°24'2 3.2
2017-Nov-18 03:00N 44°47' W 001°24'2 3.3
2017-Nov-18 02:26N 44°49' W 001°24'1 0.1
2017-Nov-17 20:43N 44°48' W 001°24'1 3.0
2017-Nov-17 20:23N 44°47' W 001°24'1 3.0
2017-Nov-17 20:00N 44°46' W 001°24'2 3.0
2017-Nov-17 19:28N 44°45' W 001°23'1 1.4
2017-Nov-17 19:00N 44°44' W 001°23'2 3.3
2017-Nov-17 18:30N 44°46' W 001°22'2 3.3
2017-Nov-17 17:55N 44°48' W 001°21'2 3.0
2017-Nov-17 17:14N 44°50' W 001°23'1 2.9
2017-Nov-17 16:52N 44°49' W 001°23'1 2.9
2017-Nov-17 16:30N 44°48' W 001°25'1 2.7
2017-Nov-17 16:00N 44°48' W 001°26'1 2.2
2017-Nov-17 15:26N 44°49' W 001°27'3 2.6
2017-Nov-17 14:22N 44°47' W 001°25'2 3.6
2017-Nov-17 13:47N 44°45' W 001°24'1 3.5
2017-Nov-17 13:31N 44°44' W 001°24'2 3.4
2017-Nov-17 13:00N 44°42' W 001°23'2 3.7
2017-Nov-17 12:30N 44°40' W 001°23'1 2.3
2017-Nov-17 12:00N 44°40' W 001°25'2 3.8
2017-Nov-17 11:30N 44°42' W 001°25'2 3.6
2017-Nov-17 11:00N 44°44' W 001°25'2 3.3
2017-Nov-17 10:30N 44°46' W 001°25'0 0.3
2017-Nov-17 09:59N 44°46' W 001°25'0 0.2
2017-Nov-17 09:30N 44°46' W 001°25'2 3.4
2017-Nov-17 09:00N 44°47' W 001°26'2 3.4
2017-Nov-17 08:30N 44°49' W 001°26'4 3.5
2017-Nov-17 07:14N 44°54' W 001°26'1 3.6
2017-Nov-17 07:00N 44°54' W 001°26'5 1.2
2017-Nov-17 02:57N 44°50' W 001°23'1 0.2
2017-Nov-16 21:35N 44°50' W 001°24'0 3.5
2017-Nov-16 21:30N 44°50' W 001°24'3 3.5
2017-Nov-16 20:40N 44°47' W 001°25'1 3.6
2017-Nov-16 20:30N 44°47' W 001°25'2 3.5
2017-Nov-16 20:00N 44°45' W 001°24'2 3.5
2017-Nov-16 19:30N 44°43' W 001°24'2 3.4
2017-Nov-16 19:00N 44°41' W 001°24'1 2.6
2017-Nov-16 18:30N 44°40' W 001°25'0 0.4
2017-Nov-16 18:00N 44°40' W 001°25'0 0.6
2017-Nov-16 17:30N 44°40' W 001°25'0 0.5
2017-Nov-16 17:00N 44°40' W 001°24'1 1.7
2017-Nov-16 16:30N 44°41' W 001°24'2 3.7
2017-Nov-16 16:00N 44°43' W 001°24'2 3.8
2017-Nov-16 15:30N 44°45' W 001°24'2 3.8
2017-Nov-16 15:00N 44°47' W 001°25'2 3.9
2017-Nov-16 14:29N 44°49' W 001°25'1 2.6
2017-Nov-16 14:00N 44°49' W 001°27'2 3.5
2017-Nov-16 13:30N 44°48' W 001°26'2 3.6
2017-Nov-16 12:50N 44°45' W 001°25'1 3.6
2017-Nov-16 12:30N 44°44' W 001°25'2 3.5
2017-Nov-16 12:01N 44°43' W 001°25'0 0.5
2017-Nov-16 11:30N 44°42' W 001°25'2 3.6
2017-Nov-16 11:01N 44°44' W 001°25'2 3.6
2017-Nov-16 10:30N 44°46' W 001°25'2 3.5
2017-Nov-16 10:00N 44°48' W 001°26'2 3.6
2017-Nov-16 09:30N 44°49' W 001°27'2 2.5
2017-Nov-16 08:39N 44°48' W 001°25'1 3.8
2017-Nov-16 08:30N 44°47' W 001°25'2 3.8
2017-Nov-16 07:59N 44°45' W 001°24'2 3.8
2017-Nov-16 07:30N 44°43' W 001°24'2 3.6
2017-Nov-16 07:00N 44°42' W 001°26'1 2.2
2017-Nov-16 06:30N 44°41' W 001°26'1 2.0
2017-Nov-16 06:00N 44°40' W 001°26'0 0.3
2017-Nov-16 05:30N 44°40' W 001°26'0 0.5
2017-Nov-16 05:00N 44°40' W 001°26'0 0.5
2017-Nov-16 04:30N 44°40' W 001°25'0 0.8
2017-Nov-16 04:00N 44°41' W 001°25'1 2.7
2017-Nov-16 03:30N 44°42' W 001°25'2 3.4
2017-Nov-16 03:00N 44°44' W 001°25'2 3.4
2017-Nov-16 02:30N 44°45' W 001°25'2 3.3
2017-Nov-16 02:00N 44°47' W 001°26'3 3.3
2017-Nov-16 01:13N 44°49' W 001°27'3 2.3
2017-Nov-16 00:03N 44°47' W 001°25'0 3.2
2017-Nov-16 00:00N 44°47' W 001°25'2 3.1
2017-Nov-15 23:23N 44°45' W 001°24'1 3.3
2017-Nov-15 23:00N 44°44' W 001°24'0 0.8
2017-Nov-15 22:30N 44°43' W 001°24'1 2.7
2017-Nov-15 22:00N 44°45' W 001°24'2 3.2
2017-Nov-15 21:30N 44°46' W 001°24'2 2.9
2017-Nov-15 20:51N 44°48' W 001°23'1 3.0
2017-Nov-15 20:30N 44°48' W 001°21'2 3.2
2017-Nov-15 20:00N 44°48' W 001°19'2 3.1
2017-Nov-15 19:30N 44°46' W 001°19'2 3.2
2017-Nov-15 19:00N 44°44' W 001°20'2 3.2
2017-Nov-15 18:30N 44°43' W 001°21'2 3.1
2017-Nov-15 18:00N 44°43' W 001°23'1 2.4
2017-Nov-15 17:30N 44°42' W 001°24'1 1.5
2017-Nov-15 17:00N 44°41' W 001°24'2 3.4
2017-Nov-15 16:30N 44°39' W 001°23'2 3.4
2017-Nov-15 16:00N 44°38' W 001°23'2 3.5
2017-Nov-15 15:30N 44°36' W 001°23'2 3.5
2017-Nov-15 15:00N 44°34' W 001°23'2 3.5
2017-Nov-15 14:30N 44°33' W 001°23'2 3.5
2017-Nov-15 14:00N 44°31' W 001°23'2 3.5
2017-Nov-15 13:30N 44°29' W 001°23'2 3.4
2017-Nov-15 13:00N 44°27' W 001°23'2 3.4
2017-Nov-15 12:30N 44°26' W 001°23'2 3.4
2017-Nov-15 12:00N 44°24' W 001°23'4 2.7
2017-Nov-15 10:35N 44°20' W 001°22'0 3.7
2017-Nov-15 10:29N 44°20' W 001°22'2 3.2
2017-Nov-15 09:59N 44°18' W 001°23'5 3.3
2017-Nov-15 08:25N 44°24' W 001°23'1 3.4
2017-Nov-15 08:00N 44°22' W 001°22'5 3.4
2017-Nov-15 06:27N 44°17' W 001°24'5 1.3
2017-Nov-15 02:49N 44°22' W 001°22'2 3.6
2017-Nov-15 02:22N 44°23' W 001°21'1 3.7
2017-Nov-15 02:00N 44°24' W 001°20'4 3.7
2017-Nov-15 00:49N 44°29' W 001°21'2 3.6
2017-Nov-15 00:24N 44°30' W 001°22'1 2.7
2017-Nov-14 23:53N 44°29' W 001°20'1 3.6
2017-Nov-14 23:28N 44°28' W 001°20'2 0.6
2017-Nov-14 19:41N 44°26' W 001°22'7 0.8
2017-Nov-14 10:09N 44°19' W 001°22'1 3.6
2017-Nov-14 09:47N 44°20' W 001°22'1 3.6
2017-Nov-14 09:30N 44°21' W 001°22'2 3.6
2017-Nov-14 09:00N 44°23' W 001°22'5 0.8
2017-Nov-14 03:20N 44°27' W 001°22'62 2.4
2017-Nov-13 02:00N 43°27' W 001°40'4 3.3
2017-Nov-13 00:53N 43°23' W 001°40'0 0.1
2017-Nov-13 00:20N 43°23' W 001°40'0 0.0
2017-Nov-12 23:19N 43°23' W 001°40'  

Dump ship's entire track history